Time;durP1;ratioP1;P1;durP2;ratioP2;P2;SDS_P1;SDS_P2;PMS_P1;PMS_P2;Temp;Humidity;BMP_temperature;BMP_pressure;BME280_temperature;BME280_humidity;BME280_pressure;Samples;Min_cycle;Max_cycle;Signal;HPM_P1;HPM_P2
2022/10/25 00:02:19;;;;;;;;;;;;;;;;;;5094917;28;19907;-67
2022/10/25 00:04:45;;;;;;;;;;;;;;;;;;5095441;28;19935;-67
2022/10/25 00:07:11;;;;;;;;;;;;;;;;;;5094959;28;19912;-67
2022/10/25 00:09:37;;;;;;;;;;;;;;;;;;5095100;28;20348;-67
2022/10/25 00:12:03;;;;;;;;;;;;;;;;;;5093778;28;20273;-67
2022/10/25 00:14:29;;;;;;;;;;;;;;;;;;5093458;28;20276;-67
2022/10/25 00:16:55;;;;;;;;;;;;;;;;;;5093766;28;19904;-67
2022/10/25 00:19:21;;;;;;;;;;;;;;;;;;5095197;28;20343;-67
2022/10/25 00:21:47;;;;;;;;;;;;;;;;;;5094772;28;20015;-67
2022/10/25 00:24:13;;;;;;;;;;;;;;;;;;5095357;28;19908;-67
2022/10/25 00:26:42;;;;;;;;;;;;;;;;;;5094546;28;19908;-67
2022/10/25 00:29:08;;;;;;;;;;;;;;;;;;5094475;28;20009;-67
2022/10/25 00:31:34;;;;;;;;;;;;;;;;;;5094678;28;19910;-67
2022/10/25 00:34:00;;;;;;;;;;;;;;;;;;5094676;28;19915;-68
2022/10/25 00:36:26;;;;;;;;;;;;;;;;;;5093059;28;19904;-68
2022/10/25 00:38:51;;;;;;;;;;;;;;;;;;5094944;28;19904;-67
2022/10/25 00:41:17;;;;;;;;;;;;;;;;;;5094548;28;19904;-67
2022/10/25 00:43:43;;;;;;;;;;;;;;;;;;5094223;28;19911;-67
2022/10/25 00:46:09;;;;;;;;;;;;;;;;;;5094510;28;19908;-68
2022/10/25 00:48:35;;;;;;;;;;;;;;;;;;5094320;28;19919;-67
2022/10/25 00:51:01;;;;;;;;;;;;;;;;;;5094116;28;19953;-67
2022/10/25 00:53:27;;;;;;;;;;;;;;;;;;5094384;28;19911;-68
2022/10/25 00:55:53;;;;;;;;;;;;;;;;;;5094292;28;19904;-68
2022/10/25 00:58:19;;;;;;;;;;;;;;;;;;5093924;28;19908;-67
2022/10/25 01:00:45;;;;;;;;;;;;;;;;;;5094303;28;19911;-67
2022/10/25 01:03:11;;;;;;;;;;;;;;;;;;5092693;28;19919;-67
2022/10/25 01:05:37;;;;;;;;;;;;;;;;;;5092645;28;19904;-67
2022/10/25 01:08:03;;;;;;;;;;;;;;;;;;5094111;28;19957;-67
2022/10/25 01:10:29;;;;;;;;;;;;;;;;;;5092682;28;19908;-68
2022/10/25 01:12:55;;;;;;;;;;;;;;;;;;5094225;28;19904;-67
2022/10/25 01:15:21;;;;;;;;;;;;;;;;;;5094099;28;19933;-67
2022/10/25 01:17:47;;;;;;;;;;;;;;;;;;5093680;28;19915;-67
2022/10/25 01:20:13;;;;;;;;;;;;;;;;;;5094022;28;19927;-67
2022/10/25 01:22:38;;;;;;;;;;;;;;;;;;5094031;28;19904;-67
2022/10/25 01:25:04;;;;;;;;;;;;;;;;;;5093606;28;19939;-67
2022/10/25 01:27:30;;;;;;;;;;;;;;;;;;5093667;28;19920;-67
2022/10/25 01:29:56;;;;;;;;;;;;;;;;;;5093910;28;19910;-67
2022/10/25 01:32:22;;;;;;;;;;;;;;;;;;5092200;28;19953;-67
2022/10/25 01:34:48;;;;;;;;;;;;;;;;;;5093927;28;19904;-68
2022/10/25 01:37:14;;;;;;;;;;;;;;;;;;5093852;28;19943;-68
2022/10/25 01:39:40;;;;;;;;;;;;;;;;;;5092114;28;19904;-68
2022/10/25 01:42:06;;;;;;;;;;;;;;;;;;5093827;28;19911;-67
2022/10/25 01:44:32;;;;;;;;;;;;;;;;;;5092533;28;19908;-67
2022/10/25 01:46:58;;;;;;;;;;;;;;;;;;5093304;28;20322;-67
2022/10/25 01:49:24;;;;;;;;;;;;;;;;;;5093703;28;19904;-68
2022/10/25 01:51:50;;;;;;;;;;;;;;;;;;5093705;28;19912;-67
2022/10/25 01:54:16;;;;;;;;;;;;;;;;;;5093325;28;19998;-67
2022/10/25 01:56:42;;;;;;;;;;;;;;;;;;5093759;28;19905;-67
2022/10/25 01:59:08;;;;;;;;;;;;;;;;;;5093642;28;19987;-67
2022/10/25 02:01:34;;;;;;;;;;;;;;;;;;5093294;28;19904;-67
2022/10/25 02:04:00;;;;;;;;;;;;;;;;;;5092359;28;19949;-67
2022/10/25 02:06:26;;;;;;;;;;;;;;;;;;5093812;28;19923;-67
2022/10/25 02:08:52;;;;;;;;;;;;;;;;;;5093285;28;19938;-67
2022/10/25 02:11:18;;;;;;;;;;;;;;;;;;5093532;28;19904;-67
2022/10/25 02:13:44;;;;;;;;;;;;;;;;;;5094039;28;19910;-67
2022/10/25 02:16:10;;;;;;;;;;;;;;;;;;5095689;28;20366;-68
2022/10/25 02:18:36;;;;;;;;;;;;;;;;;;5097418;28;19904;-67
2022/10/25 02:21:01;;;;;;;;;;;;;;;;;;5096937;28;19949;-68
2022/10/25 02:23:27;;;;;;;;;;;;;;;;;;5097213;28;19904;-67
2022/10/25 02:25:53;;;;;;;;;;;;;;;;;;5097278;28;19904;-68
2022/10/25 02:28:19;;;;;;;;;;;;;;;;;;5095153;28;19920;-67
2022/10/25 02:30:45;;;;;;;;;;;;;;;;;;5097303;28;19904;-67
2022/10/25 02:33:11;;;;;;;;;;;;;;;;;;5097026;28;20041;-67
2022/10/25 02:35:37;;;;;;;;;;;;;;;;;;5096582;28;19904;-68
2022/10/25 02:38:03;;;;;;;;;;;;;;;;;;5096874;28;19911;-68
2022/10/25 02:40:29;;;;;;;;;;;;;;;;;;5097020;28;20007;-68
2022/10/25 02:42:55;;;;;;;;;;;;;;;;;;5096753;28;19949;-67
2022/10/25 02:45:21;;;;;;;;;;;;;;;;;;5096733;28;19904;-67
2022/10/25 02:47:47;;;;;;;;;;;;;;;;;;5096711;28;19919;-67
2022/10/25 02:50:13;;;;;;;;;;;;;;;;;;5096347;28;19940;-67
2022/10/25 02:52:39;;;;;;;;;;;;;;;;;;5096692;28;19904;-67
2022/10/25 02:55:05;;;;;;;;;;;;;;;;;;5096647;28;20276;-67
2022/10/25 02:57:31;;;;;;;;;;;;;;;;;;5096148;28;19907;-68
2022/10/25 02:59:56;;;;;;;;;;;;;;;;;;5096573;28;20252;-67
2022/10/25 03:02:22;;;;;;;;;;;;;;;;;;5095239;28;20347;-67
2022/10/25 03:04:48;;;;;;;;;;;;;;;;;;5096058;28;19904;-67
2022/10/25 03:07:14;;;;;;;;;;;;;;;;;;5095030;28;19908;-67
2022/10/25 03:09:40;;;;;;;;;;;;;;;;;;5096363;28;20062;-68
2022/10/25 03:12:06;;;;;;;;;;;;;;;;;;5095984;28;19904;-68
2022/10/25 03:14:32;;;;;;;;;;;;;;;;;;5094965;28;19911;-68
2022/10/25 03:16:58;;;;;;;;;;;;;;;;;;5096201;28;19951;-68
2022/10/25 03:19:24;;;;;;;;;;;;;;;;;;5095791;28;19911;-68
2022/10/25 03:21:50;;;;;;;;;;;;;;;;;;5096114;28;19904;-67
2022/10/25 03:24:16;;;;;;;;;;;;;;;;;;5094410;28;19904;-67
2022/10/25 03:26:42;;;;;;;;;;;;;;;;;;5095746;28;19908;-67
2022/10/25 03:29:08;;;;;;;;;;;;;;;;;;5096270;28;20387;-67
2022/10/25 03:31:34;;;;;;;;;;;;;;;;;;5095640;28;19904;-68
2022/10/25 03:34:00;;;;;;;;;;;;;;;;;;5095904;28;19953;-68
2022/10/25 03:36:26;;;;;;;;;;;;;;;;;;5094567;28;19917;-68
2022/10/25 03:38:52;;;;;;;;;;;;;;;;;;5095396;28;19904;-68
2022/10/25 03:41:18;;;;;;;;;;;;;;;;;;5095726;28;20314;-67
2022/10/25 03:43:44;;;;;;;;;;;;;;;;;;5095971;28;19995;-67
2022/10/25 03:46:09;;;;;;;;;;;;;;;;;;5093960;28;19907;-67
2022/10/25 03:48:35;;;;;;;;;;;;;;;;;;5095525;28;19912;-68
2022/10/25 03:51:01;;;;;;;;;;;;;;;;;;5095670;28;19975;-67
2022/10/25 03:53:27;;;;;;;;;;;;;;;;;;5095082;28;20383;-68
2022/10/25 03:55:53;;;;;;;;;;;;;;;;;;5095440;28;20245;-67
2022/10/25 03:58:19;;;;;;;;;;;;;;;;;;5094122;28;20355;-67
2022/10/25 04:00:45;;;;;;;;;;;;;;;;;;5094916;28;19908;-67
2022/10/25 04:03:11;;;;;;;;;;;;;;;;;;5095300;28;19904;-67
2022/10/25 04:05:37;;;;;;;;;;;;;;;;;;5095281;28;19949;-68
2022/10/25 04:08:03;;;;;;;;;;;;;;;;;;5093475;28;19916;-68
2022/10/25 04:10:29;;;;;;;;;;;;;;;;;;5093818;28;19915;-68
2022/10/25 04:12:55;;;;;;;;;;;;;;;;;;5095217;28;19956;-68
2022/10/25 04:15:21;;;;;;;;;;;;;;;;;;5094770;28;20387;-68
2022/10/25 04:17:47;;;;;;;;;;;;;;;;;;5094999;28;20292;-68
2022/10/25 04:20:13;;;;;;;;;;;;;;;;;;5094929;28;19973;-68
2022/10/25 04:22:39;;;;;;;;;;;;;;;;;;5094743;28;19904;-68
2022/10/25 04:25:04;;;;;;;;;;;;;;;;;;5094856;28;19904;-68
2022/10/25 04:27:30;;;;;;;;;;;;;;;;;;5094207;28;19969;-68
2022/10/25 04:29:56;;;;;;;;;;;;;;;;;;5094701;28;19911;-68
2022/10/25 04:32:22;;;;;;;;;;;;;;;;;;5094872;28;19939;-68
2022/10/25 04:34:48;;;;;;;;;;;;;;;;;;5093014;28;20261;-68
2022/10/25 04:37:15;;;;;;;;;;;;;;;;;;5094084;28;19911;-68
2022/10/25 04:39:41;;;;;;;;;;;;;;;;;;5095169;28;19942;-68
2022/10/25 04:42:07;;;;;;;;;;;;;;;;;;5092909;28;19943;-68
2022/10/25 04:44:33;;;;;;;;;;;;;;;;;;5094474;28;19973;-68
2022/10/25 04:46:59;;;;;;;;;;;;;;;;;;5094512;28;19908;-68
2022/10/25 04:49:24;;;;;;;;;;;;;;;;;;5092792;28;19908;-68
2022/10/25 04:51:50;;;;;;;;;;;;;;;;;;5094777;28;19954;-68
2022/10/25 04:54:16;;;;;;;;;;;;;;;;;;5093109;28;19911;-68
2022/10/25 04:56:42;;;;;;;;;;;;;;;;;;5093856;28;19904;-68
2022/10/25 04:59:08;;;;;;;;;;;;;;;;;;5092948;28;19949;-68
2022/10/25 05:01:34;;;;;;;;;;;;;;;;;;5094645;28;19904;-68
2022/10/25 05:04:00;;;;;;;;;;;;;;;;;;5094043;28;19904;-68
2022/10/25 05:06:26;;;;;;;;;;;;;;;;;;5094193;28;19904;-68
2022/10/25 05:08:52;;;;;;;;;;;;;;;;;;5094063;28;19957;-67
2022/10/25 05:11:18;;;;;;;;;;;;;;;;;;5089214;28;19904;-68
2022/10/25 05:13:44;;;;;;;;;;;;;;;;;;5092179;28;19911;-69
2022/10/25 05:16:10;;;;;;;;;;;;;;;;;;5093998;28;19903;-69
2022/10/25 05:18:36;;;;;;;;;;;;;;;;;;5093287;28;20002;-68
2022/10/25 05:21:05;;;;;;;;;;;;;;;;;;5086375;28;19912;-67
2022/10/25 05:23:31;;;;;;;;;;;;;;;;;;5083409;28;21332;-68
2022/10/25 05:25:57;;;;;;;;;;;;;;;;;;5089375;28;19914;-68
2022/10/25 05:28:23;;;;;;;;;;;;;;;;;;5089905;28;20290;-68
2022/10/25 05:30:49;;;;;;;;;;;;;;;;;;5081302;28;19959;-69
2022/10/25 05:33:15;;;;;;;;;;;;;;;;;;5085578;28;19908;-68
2022/10/25 05:35:41;;;;;;;;;;;;;;;;;;5083971;28;19912;-69
2022/10/25 05:38:08;;;;;;;;;;;;;;;;;;5083329;28;19908;-67
2022/10/25 05:40:34;;;;;;;;;;;;;;;;;;5080187;28;20536;-68
2022/10/25 05:43:00;;;;;;;;;;;;;;;;;;5084513;28;19912;-69
2022/10/25 05:45:26;;;;;;;;;;;;;;;;;;5087775;28;19904;-67
2022/10/25 05:47:52;;;;;;;;;;;;;;;;;;5088703;28;20356;-65
2022/10/25 05:50:18;;;;;;;;;;;;;;;;;;5092347;28;19904;-66
2022/10/25 05:52:44;;;;;;;;;;;;;;;;;;5094580;28;20006;-65
2022/10/25 05:55:09;;;;;;;;;;;;;;;;;;5088680;28;19918;-65
2022/10/25 05:57:35;;;;;;;;;;;;;;;;;;5088141;28;19911;-64
2022/10/25 06:00:01;;;;;;;;;;;;;;;;;;5086756;28;19947;-65
2022/10/25 06:02:27;;;;;;;;;;;;;;;;;;5078867;28;20348;-68
2022/10/25 06:04:53;;;;;;;;;;;;;;;;;;5088203;28;20371;-66
2022/10/25 06:07:19;;;;;;;;;;;;;;;;;;5095303;28;19964;-68
2022/10/25 06:09:45;;;;;;;;;;;;;;;;;;5076002;28;19957;-68
2022/10/25 06:12:11;;;;;;;;;;;;;;;;;;5084075;28;19915;-67
2022/10/25 06:14:37;;;;;;;;;;;;;;;;;;5093567;28;19908;-66
2022/10/25 06:17:03;;;;;;;;;;;;;;;;;;5093599;28;19980;-66
2022/10/25 06:19:29;;;;;;;;;;;;;;;;;;5094597;28;19919;-67
2022/10/25 06:21:55;;;;;;;;;;;;;;;;;;5096673;28;20359;-66
2022/10/25 06:24:21;;;;;;;;;;;;;;;;;;5090394;28;19908;-66
2022/10/25 06:26:47;;;;;;;;;;;;;;;;;;5084217;28;19910;-69
2022/10/25 06:29:13;;;;;;;;;;;;;;;;;;5085189;28;19971;-66
2022/10/25 06:31:41;;;;;;;;;;;;;;;;;;5074169;28;20301;-67
2022/10/25 06:34:07;;;;;;;;;;;;;;;;;;5075106;28;19905;-65
2022/10/25 06:36:33;;;;;;;;;;;;;;;;;;5072567;28;19911;-66
2022/10/25 06:38:59;;;;;;;;;;;;;;;;;;5082250;28;19908;-67
2022/10/25 06:41:26;;;;;;;;;;;;;;;;;;5091517;28;19914;-67
2022/10/25 06:43:52;;;;;;;;;;;;;;;;;;5096327;28;19908;-66
2022/10/25 06:46:18;;;;;;;;;;;;;;;;;;5096024;28;19912;-66
2022/10/25 06:48:44;;;;;;;;;;;;;;;;;;5085041;28;20372;-66
2022/10/25 06:51:10;;;;;;;;;;;;;;;;;;5081994;28;20279;-65
2022/10/25 06:53:36;;;;;;;;;;;;;;;;;;5084914;28;19931;-66
2022/10/25 06:59:27;;;;;;;;;;;;;;;;;;5087936;28;19912;-65
2022/10/25 07:04:58;;;;;;;;;;;;;;;;;;5086713;27;20398;-66
2022/10/25 07:07:24;;;;;;;;;;;;;;;;;;5087556;28;19913;-66
2022/10/25 07:09:50;;;;;;;;;;;;;;;;;;5086787;28;19995;-65
2022/10/25 07:12:49;;;;;;;;;;;;;;;;;;5088644;27;19916;-66
2022/10/25 07:15:15;;;;;;;;;;;;;;;;;;5085781;28;20288;-67
2022/10/25 07:20:05;;;;;;;;;;;;;;;;;;5045711;28;19923;-68
2022/10/25 07:23:18;;;;;;;;;;;;;;;;;;5062732;27;19975;-65
2022/10/25 07:26:56;;;;;;;;;;;;;;;;;;5084807;27;19924;-66
2022/10/25 07:33:08;;;;;;;;;;;;;;;;;;5087814;27;19916;-67
2022/10/25 07:37:54;;;;;;;;;;;;;;;;;;5087646;27;20377;-67
2022/10/25 07:40:20;;;;;;;;;;;;;;;;;;5088089;28;19913;-67
2022/10/25 07:47:12;;;;;;;;;;;;;;;;;;5170898;27;19911;-69
2022/10/25 07:49:38;;;;;;;;;;;;;;;;;;5172077;27;20434;-68
2022/10/25 07:53:58;;;;;;;;;;;;;;;;;;5130840;27;20010;-68
2022/10/25 07:56:24;;;;;;;;;;;;;;;;;;5131251;28;19951;-66
2022/10/25 08:00:33;;;;;;;;;;;;;;;;;;5109846;27;20284;-68
2022/10/25 08:03:01;;;;;;;;;;;;;;;;;;5110285;28;19912;-67
2022/10/25 08:07:32;;;;;;;;;;;;;;;;;;5107780;27;19913;-68
2022/10/25 08:13:04;;;;;;;;;;;;;;;;;;5105096;27;19912;-69
2022/10/25 08:15:32;;;;;;;;;;;;;;;;;;5103825;28;20288;-68
2022/10/25 08:18:00;;;;;;;;;;;;;;;;;;5104913;28;19914;-68
2022/10/25 08:20:27;;;;;;;;;;;;;;;;;;5105676;28;20006;-69
2022/10/25 08:26:25;;;;;;;;;;;;;;;;;;4807364;27;9016052;-67
2022/10/25 08:32:37;;;;;;;;;;;;;;;;;;5086167;27;20288;-68
2022/10/25 08:39:28;;;;;;;;;;;;;;;;;;4973682;27;3789559;-68
2022/10/25 08:41:57;;;;;;;;;;;;;;;;;;5105965;28;19915;-67
2022/10/25 08:44:23;;;;;;;;;;;;;;;;;;5108181;28;19922;-70
2022/10/25 08:47:26;;;;;;;;;;;;;;;;;;4677083;28;11102753;-69
2022/10/25 08:51:21;;;;;;;;;;;;;;;;;;4744873;27;9207905;-71
2022/10/25 09:00:51;;;;;;;;;;;;;;;;;;5129198;27;20255;-67
2022/10/25 09:04:16;;;;;;;;;;;;;;;;;;5147334;27;19921;-70
2022/10/25 09:13:26;;;;;;;;;;;;;;;;;;5082535;27;19916;-70
2022/10/25 09:15:53;;;;;;;;;;;;;;;;;;5082255;28;20551;-69
2022/10/25 09:19:36;;;;;;;;;;;;;;;;;;5156485;27;19919;-68
2022/10/25 09:26:28;;;;;;;;;;;;;;;;;;5146157;27;19911;-70
2022/10/25 09:28:54;;;;;;;;;;;;;;;;;;5109239;27;20006;-69
2022/10/25 09:31:20;;;;;;;;;;;;;;;;;;5128343;28;20003;-70
2022/10/25 09:37:27;;;;;;;;;;;;;;;;;;5107193;27;20299;-69
2022/10/25 09:39:53;;;;;;;;;;;;;;;;;;5109890;28;19911;-67
2022/10/25 09:42:19;;;;;;;;;;;;;;;;;;5111912;28;20429;-68
2022/10/25 09:46:04;;;;;;;;;;;;;;;;;;5090170;27;19912;-68
2022/10/25 09:48:30;;;;;;;;;;;;;;;;;;5090789;28;19999;-68
2022/10/25 09:53:06;;;;;;;;;;;;;;;;;;5110132;27;19912;-69
2022/10/25 09:55:32;;;;;;;;;;;;;;;;;;5109907;28;20269;-69
2022/10/25 09:57:58;;;;;;;;;;;;;;;;;;5108789;28;19915;-70
2022/10/25 10:00:24;;;;;;;;;;;;;;;;;;5109046;28;19915;-69
2022/10/25 10:02:50;;;;;;;;;;;;;;;;;;5109239;28;20379;-69
2022/10/25 10:06:47;;;;;;;;;;;;;;;;;;5104458;27;19916;-69
2022/10/25 10:09:13;;;;;;;;;;;;;;;;;;5106933;28;19916;-69
2022/10/25 10:11:39;;;;;;;;;;;;;;;;;;5106040;28;19908;-70
2022/10/25 10:14:05;;;;;;;;;;;;;;;;;;5097925;28;19920;-69
2022/10/25 10:16:34;;;;;;;;;;;;;;;;;;5103956;28;20353;-73
2022/10/25 10:19:00;;;;;;;;;;;;;;;;;;5101991;28;19930;-71
2022/10/25 10:21:26;;;;;;;;;;;;;;;;;;5099685;28;19912;-71
2022/10/25 10:25:05;;;;;;;;;;;;;;;;;;5077832;27;19924;-70
2022/10/25 10:27:31;;;;;;;;;;;;;;;;;;5076943;28;19919;-69
2022/10/25 10:29:57;;;;;;;;;;;;;;;;;;5088683;28;19913;-71
2022/10/25 10:32:23;;;;;;;;;;;;;;;;;;5084692;28;19954;-72
2022/10/25 10:34:49;;;;;;;;;;;;;;;;;;5082083;28;19919;-71
2022/10/25 10:37:15;;;;;;;;;;;;;;;;;;5079982;28;19912;-73
2022/10/25 10:39:41;;;;;;;;;;;;;;;;;;5070789;28;19962;-72
2022/10/25 10:42:07;;;;;;;;;;;;;;;;;;5089742;28;19912;-73
2022/10/25 10:46:23;;;;;;;;;;;;;;;;;;5081868;27;19920;-73
2022/10/25 10:48:49;;;;;;;;;;;;;;;;;;5084081;28;19967;-71
2022/10/25 10:51:15;;;;;;;;;;;;;;;;;;5067631;28;19913;-72
2022/10/25 10:53:41;;;;;;;;;;;;;;;;;;5068890;28;19912;-72
2022/10/25 10:56:07;;;;;;;;;;;;;;;;;;5067566;28;19919;-69
2022/10/25 10:58:34;;;;;;;;;;;;;;;;;;5068560;28;20454;-70
2022/10/25 11:01:00;;;;;;;;;;;;;;;;;;5065974;28;19920;-70
2022/10/25 11:03:26;;;;;;;;;;;;;;;;;;5068212;28;20323;-71
2022/10/25 11:07:43;;;;;;;;;;;;;;;;;;5087677;27;19916;-69
2022/10/25 11:10:09;;;;;;;;;;;;;;;;;;5088306;28;19913;-68
2022/10/25 11:12:35;;;;;;;;;;;;;;;;;;5088843;28;19908;-70
2022/10/25 11:15:01;;;;;;;;;;;;;;;;;;5089377;28;20003;-71
2022/10/25 11:17:27;;;;;;;;;;;;;;;;;;5086504;28;19915;-72
2022/10/25 11:19:53;;;;;;;;;;;;;;;;;;5087437;28;19996;-70
2022/10/25 11:22:19;;;;;;;;;;;;;;;;;;5089716;28;19908;-70
2022/10/25 11:24:45;;;;;;;;;;;;;;;;;;5086743;28;19915;-70
2022/10/25 11:27:11;;;;;;;;;;;;;;;;;;5093854;28;19920;-70
2022/10/25 11:29:37;;;;;;;;;;;;;;;;;;5070119;28;19920;-71
2022/10/25 11:32:03;;;;;;;;;;;;;;;;;;5065411;28;20258;-70
2022/10/25 11:34:29;;;;;;;;;;;;;;;;;;5068731;28;19982;-71
2022/10/25 11:36:55;;;;;;;;;;;;;;;;;;5075520;28;19920;-72
2022/10/25 11:39:21;;;;;;;;;;;;;;;;;;5069283;28;19909;-71
2022/10/25 11:41:47;;;;;;;;;;;;;;;;;;5079254;28;19916;-72
2022/10/25 11:44:13;;;;;;;;;;;;;;;;;;5088814;28;19909;-73
2022/10/25 11:46:38;;;;;;;;;;;;;;;;;;5074325;28;19994;-72
2022/10/25 11:49:04;;;;;;;;;;;;;;;;;;5079350;28;19960;-72
2022/10/25 11:51:30;;;;;;;;;;;;;;;;;;5087209;28;19924;-72
2022/10/25 11:53:56;;;;;;;;;;;;;;;;;;5080494;28;19915;-71
2022/10/25 11:56:22;;;;;;;;;;;;;;;;;;5069760;28;19909;-71
2022/10/25 11:58:48;;;;;;;;;;;;;;;;;;5069138;28;20357;-72
2022/10/25 12:01:14;;;;;;;;;;;;;;;;;;5083886;28;19913;-73
2022/10/25 12:03:40;;;;;;;;;;;;;;;;;;5079654;28;19917;-72
2022/10/25 12:06:06;;;;;;;;;;;;;;;;;;5087788;28;19920;-71
2022/10/25 12:08:32;;;;;;;;;;;;;;;;;;5089709;28;19908;-70
2022/10/25 12:10:58;;;;;;;;;;;;;;;;;;5089619;28;19916;-70
2022/10/25 12:13:24;;;;;;;;;;;;;;;;;;5089307;28;20391;-71
2022/10/25 12:15:50;;;;;;;;;;;;;;;;;;5089375;28;19908;-69
2022/10/25 12:18:16;;;;;;;;;;;;;;;;;;5063188;28;20380;-72
2022/10/25 12:20:42;;;;;;;;;;;;;;;;;;5055164;28;19951;-70
2022/10/25 12:23:09;;;;;;;;;;;;;;;;;;5064797;28;19962;-69
2022/10/25 12:25:35;;;;;;;;;;;;;;;;;;5075933;28;19922;-72
2022/10/25 12:28:03;;;;;;;;;;;;;;;;;;5075463;28;19917;-71
2022/10/25 12:30:29;;;;;;;;;;;;;;;;;;5074528;28;20273;-70
2022/10/25 12:32:55;;;;;;;;;;;;;;;;;;5074410;28;19930;-71
2022/10/25 12:35:21;;;;;;;;;;;;;;;;;;5075800;28;20401;-71
2022/10/25 12:37:48;;;;;;;;;;;;;;;;;;5075715;28;20300;-73
2022/10/25 12:40:14;;;;;;;;;;;;;;;;;;5075015;28;19915;-71
2022/10/25 12:42:40;;;;;;;;;;;;;;;;;;5073418;28;19909;-70
2022/10/25 12:45:06;;;;;;;;;;;;;;;;;;5073382;28;19947;-71
2022/10/25 12:47:32;;;;;;;;;;;;;;;;;;5062708;28;19923;-71
2022/10/25 12:50:08;;;;;;;375.10;248.63;;;;;;;;;;5074153;28;20378;-69
2022/10/25 12:52:36;;;;;;;;;;;;;;;;;;5075185;28;20028;-72
2022/10/25 12:55:02;;;;;;;;;;;;;;;;;;5073589;28;19912;-72
2022/10/25 12:57:28;;;;;;;;;;;;;;;;;;5074025;28;19958;-71
2022/10/25 12:59:54;;;;;;;;;;;;;;;;;;5054993;28;19909;-71
2022/10/25 13:02:19;;;;;;;;;;;;;;;;;;5053277;28;19908;-71
2022/10/25 13:04:45;;;;;;;;;;;;;;;;;;5054386;28;19912;-71
2022/10/25 13:07:11;;;;;;;;;;;;;;;;;;5054393;28;19917;-71
2022/10/25 13:09:37;;;;;;;;;;;;;;;;;;5051401;28;19909;-71
2022/10/25 13:12:03;;;;;;;;;;;;;;;;;;5052479;28;20003;-68
2022/10/25 13:14:29;;;;;;;;;;;;;;;;;;5052410;28;19904;-69
2022/10/25 13:16:55;;;;;;;;;;;;;;;;;;5051871;28;19940;-68
2022/10/25 13:19:22;;;;;;;;;;;;;;;;;;5053375;28;20358;-68
2022/10/25 13:21:48;;;;;;;;;;;;;;;;;;5053525;28;19911;-68
2022/10/25 13:24:14;;;;;;;;;;;;;;;;;;5052809;28;19909;-68
2022/10/25 13:26:40;;;;;;;;;;;;;;;;;;5053451;28;19919;-69
2022/10/25 13:29:06;;;;;;;;;;;;;;;;;;5052479;28;19908;-67
2022/10/25 13:31:32;;;;;;;;;;;;;;;;;;5054791;28;19912;-67
2022/10/25 13:33:58;;;;;;;;;;;;;;;;;;5053841;28;19905;-68
2022/10/25 13:36:24;;;;;;;;;;;;;;;;;;5054710;28;19904;-68
2022/10/25 13:38:49;;;;;;;;;;;;;;;;;;5054994;28;19904;-69
2022/10/25 13:41:15;;;;;;;;;;;;;;;;;;5054972;28;19905;-67
2022/10/25 13:43:41;;;;;;;;;;;;;;;;;;5054815;28;19905;-68
2022/10/25 13:46:07;;;;;;;;;;;;;;;;;;5054746;28;19912;-68
2022/10/25 13:48:33;;;;;;;;;;;;;;;;;;5054817;28;19955;-68
2022/10/25 13:50:59;;;;;;;;;;;;;;;;;;5054522;28;19908;-68
2022/10/25 13:53:25;;;;;;;;;;;;;;;;;;5053551;28;19940;-68
2022/10/25 13:55:51;;;;;;;;;;;;;;;;;;5054780;28;20369;-68
2022/10/25 13:58:17;;;;;;;;;;;;;;;;;;5054286;28;20365;-68
2022/10/25 14:00:46;;;;;;;;;;;;;;;;;;5054600;28;20281;-68
2022/10/25 14:03:12;;;;;;;;;;;;;;;;;;5054493;28;19999;-68
2022/10/25 14:05:38;;;;;;;;;;;;;;;;;;5053835;28;19920;-68
2022/10/25 14:08:04;;;;;;;;;;;;;;;;;;5054921;28;19904;-69
2022/10/25 14:10:30;;;;;;;;;;;;;;;;;;5054483;28;19926;-68
2022/10/25 14:12:56;;;;;;;;;;;;;;;;;;5054052;28;19911;-68
2022/10/25 14:15:22;;;;;;;;;;;;;;;;;;5054615;28;19905;-68
2022/10/25 14:17:48;;;;;;;;;;;;;;;;;;5054709;28;20408;-69
2022/10/25 14:20:14;;;;;;;;;;;;;;;;;;5053831;28;19983;-69
2022/10/25 14:22:40;;;;;;;;;;;;;;;;;;5054232;28;19936;-69
2022/10/25 14:25:06;;;;;;;;;;;;;;;;;;5054143;28;19905;-68
2022/10/25 14:27:32;;;;;;;;;;;;;;;;;;5052394;28;20007;-69
2022/10/25 14:29:58;;;;;;;;;;;;;;;;;;5054256;28;19912;-68
2022/10/25 14:32:23;;;;;;;;;;;;;;;;;;5053752;28;20364;-69
2022/10/25 14:34:49;;;;;;;;;;;;;;;;;;5054052;28;20441;-69
2022/10/25 14:37:15;;;;;;;;;;;;;;;;;;5054079;28;19987;-69
2022/10/25 14:39:41;;;;;;;;;;;;;;;;;;5053615;28;19904;-69
2022/10/25 14:42:07;;;;;;;;;;;;;;;;;;5053812;28;19904;-69
2022/10/25 14:44:33;;;;;;;;;;;;;;;;;;5054388;28;19961;-69
2022/10/25 14:46:59;;;;;;;;;;;;;;;;;;5053946;28;19913;-70
2022/10/25 14:49:25;;;;;;;;;;;;;;;;;;5053977;28;20329;-69
2022/10/25 14:51:51;;;;;;;;;;;;;;;;;;5053692;28;19911;-69
2022/10/25 14:54:18;;;;;;;;;;;;;;;;;;5053661;28;19995;-69
2022/10/25 14:56:44;;;;;;;;;;;;;;;;;;5054063;28;20344;-69
2022/10/25 14:59:10;;;;;;;;;;;;;;;;;;5053960;28;19905;-69
2022/10/25 15:01:36;;;;;;;;;;;;;;;;;;5055685;28;19954;-69
2022/10/25 15:04:02;;;;;;;;;;;;;;;;;;5074634;28;19904;-68
2022/10/25 15:06:28;;;;;;;;;;;;;;;;;;5073737;28;20288;-68
2022/10/25 15:08:54;;;;;;;;;;;;;;;;;;5073365;28;20323;-69
2022/10/25 15:11:20;;;;;;;;;;;;;;;;;;5073352;28;19904;-69
2022/10/25 15:13:46;;;;;;;;;;;;;;;;;;5071561;28;19931;-69
2022/10/25 15:16:12;;;;;;;;;;;;;;;;;;5071925;28;19999;-69
2022/10/25 15:18:38;;;;;;;;;;;;;;;;;;5073656;28;19911;-68
2022/10/25 15:21:04;;;;;;;;;;;;;;;;;;5073583;28;19904;-68
2022/10/25 15:23:30;;;;;;;;;;;;;;;;;;5073161;28;19909;-68
2022/10/25 15:25:56;;;;;;;;;;;;;;;;;;5072156;28;19927;-68
2022/10/25 15:28:22;;;;;;;;;;;;;;;;;;5073476;28;19919;-70
2022/10/25 15:30:48;;;;;;;;;;;;;;;;;;5072823;28;19912;-68
2022/10/25 15:33:14;;;;;;;;;;;;;;;;;;5072160;28;19904;-68
2022/10/25 15:35:40;;;;;;;;;;;;;;;;;;5071997;28;19951;-70
2022/10/25 15:38:06;;;;;;;;;;;;;;;;;;5073397;28;19904;-68
2022/10/25 15:40:32;;;;;;;;;;;;;;;;;;5073278;28;19905;-70
2022/10/25 15:42:58;;;;;;;;;;;;;;;;;;5072774;28;20290;-68
2022/10/25 15:45:24;;;;;;;;;;;;;;;;;;5071807;28;19905;-68
2022/10/25 15:47:51;;;;;;;;;;;;;;;;;;5073289;28;19978;-69
2022/10/25 15:50:17;;;;;;;;;;;;;;;;;;5071485;28;19916;-68
2022/10/25 15:52:43;;;;;;;;;;;;;;;;;;5073839;28;20001;-68
2022/10/25 15:55:08;;;;;;;;;;;;;;;;;;5075666;28;19904;-68
2022/10/25 15:57:34;;;;;;;;;;;;;;;;;;5075148;28;19904;-68
2022/10/25 16:05:15;;;;;;;;;;;;;;;;;;5091270;27;19923;-69
2022/10/25 16:07:41;;;;;;;;;;;;;;;;;;5091376;28;19995;-69
2022/10/25 16:10:58;;;;;;;;;;;;;;;;;;5091245;27;20386;-68
2022/10/25 16:13:24;;;;;;;;;;;;;;;;;;5091242;28;19955;-69
2022/10/25 16:22:02;;;;;;;;;;;;;;;;;;5112041;27;19916;-70
2022/10/25 16:24:28;;;;;;;;;;;;;;;;;;5111738;28;19912;-68
2022/10/25 16:26:54;;;;;;;;;;;;;;;;;;5111259;28;20257;-68
2022/10/25 16:29:20;;;;;;;;;;;;;;;;;;5111764;28;19912;-68
2022/10/25 16:31:46;;;;;;;;;;;;;;;;;;5111596;28;19914;-69
2022/10/25 16:34:16;;;;;;;;;;;;;;;;;;5111104;28;19935;-69
2022/10/25 16:36:41;;;;;;;;;;;;;;;;;;5111614;28;19911;-68
2022/10/25 16:39:10;;;;;;;;;;;;;;;;;;5111003;28;20383;-68
2022/10/25 16:41:36;;;;;;;;;;;;;;;;;;5111466;28;20380;-68
2022/10/25 16:44:02;;;;;;;;;;;;;;;;;;5110360;28;19912;-68
2022/10/25 16:46:27;;;;;;;;;;;;;;;;;;5111258;28;20002;-68
2022/10/25 16:48:53;;;;;;;;;;;;;;;;;;5111525;28;20314;-68
2022/10/25 16:51:19;;;;;;;;;;;;;;;;;;5111501;28;20271;-68
2022/10/25 16:53:45;;;;;;;;;;;;;;;;;;5110994;28;19908;-69
2022/10/25 16:56:11;;;;;;;;;;;;;;;;;;5111253;28;19939;-68
2022/10/25 16:58:37;;;;;;;;;;;;;;;;;;5109829;28;19961;-68
2022/10/25 17:01:03;;;;;;;;;;;;;;;;;;5110782;28;19916;-68
2022/10/25 17:03:29;;;;;;;;;;;;;;;;;;5109992;28;19915;-68
2022/10/25 17:05:55;;;;;;;;;;;;;;;;;;5110962;28;19908;-68
2022/10/25 17:08:21;;;;;;;;;;;;;;;;;;5110648;28;19964;-68
2022/10/25 17:10:47;;;;;;;;;;;;;;;;;;5110368;28;20003;-67
2022/10/25 17:13:18;;;;;;;;;;;;;;;;;;5110642;28;19915;-67
2022/10/25 17:15:44;;;;;;;;;;;;;;;;;;5110644;28;20367;-68
2022/10/25 17:18:12;;;;;;;;;;;;;;;;;;5110802;28;19997;-69
2022/10/25 17:20:38;;;;;;;;;;;;;;;;;;5110619;28;20327;-67
2022/10/25 17:23:04;;;;;;;;;;;;;;;;;;5110385;28;19953;-67
2022/10/25 17:25:30;;;;;;;;;;;;;;;;;;5110630;28;20360;-69
2022/10/25 17:27:56;;;;;;;;;;;;;;;;;;5110811;28;20444;-68
2022/10/25 17:30:22;;;;;;;;;;;;;;;;;;5110153;28;19912;-69
2022/10/25 17:32:48;;;;;;;;;;;;;;;;;;5100071;28;19908;-69
2022/10/25 17:35:14;;;;;;;;;;;;;;;;;;5096609;28;19915;-69
2022/10/25 17:37:42;;;;;;;;;;;;;;;;;;5096844;28;19908;-69
2022/10/25 17:40:24;;;;;;;;;;;;;;;;;;5111971;27;19916;-68
2022/10/25 17:42:50;;;;;;;;;;;;;;;;;;5111348;28;19950;-68
2022/10/25 17:45:16;;;;;;;;;;;;;;;;;;5110326;28;19908;-67
2022/10/25 17:47:42;;;;;;;;;;;;;;;;;;5111555;28;19953;-68
2022/10/25 17:50:08;;;;;;;;;;;;;;;;;;5109804;28;19915;-68
2022/10/25 17:52:34;;;;;;;;;;;;;;;;;;5111552;28;19912;-68
2022/10/25 17:55:00;;;;;;;;;;;;;;;;;;5111532;28;19960;-69
2022/10/25 17:57:26;;;;;;;;;;;;;;;;;;5110959;28;19915;-70
2022/10/25 17:59:52;;;;;;;;;;;;;;;;;;5111370;28;20424;-67
2022/10/25 18:07:55;;;;;;;;;;;;;;;;;;5112245;27;19916;-68
2022/10/25 18:10:21;;;;;;;;;;;;;;;;;;5111967;28;20321;-68
2022/10/25 18:12:47;;;;;;;;;;;;;;;;;;5111406;28;20002;-68